sensor_id;sensor_type;location;lat;lon;timestamp;pressure;altitude;pressure_sealevel;temperature;humidity
60246;BME280;46107;53.356;-1.524;2023-02-22T00:00:53;98343.41;;;6.75;76.66
60246;BME280;46107;53.356;-1.524;2023-02-22T00:03:22;98332.15;;;6.81;74.37
60246;BME280;46107;53.356;-1.524;2023-02-22T00:05:52;98325.23;;;7.52;73.56
60246;BME280;46107;53.356;-1.524;2023-02-22T00:08:22;98322.58;;;6.93;73.39
60246;BME280;46107;53.356;-1.524;2023-02-22T00:10:50;98322.18;;;6.27;76.03
60246;BME280;46107;53.356;-1.524;2023-02-22T00:13:18;98312.29;;;6.84;74.69
60246;BME280;46107;53.356;-1.524;2023-02-22T00:15:47;98311.73;;;6.37;76.23
60246;BME280;46107;53.356;-1.524;2023-02-22T00:18:16;98307.05;;;7.14;74.65
60246;BME280;46107;53.356;-1.524;2023-02-22T00:20:44;98312.92;;;5.58;79.45
60246;BME280;46107;53.356;-1.524;2023-02-22T00:23:14;98317.35;;;5.88;79.70
60246;BME280;46107;53.356;-1.524;2023-02-22T00:25:42;98315.22;;;5.39;82.68
60246;BME280;46107;53.356;-1.524;2023-02-22T00:28:09;98312.30;;;5.73;82.71
60246;BME280;46107;53.356;-1.524;2023-02-22T00:30:37;98314.90;;;5.37;82.39
60246;BME280;46107;53.356;-1.524;2023-02-22T00:33:05;98317.80;;;6.35;78.24
60246;BME280;46107;53.356;-1.524;2023-02-22T00:35:32;98314.28;;;6.61;76.44
60246;BME280;46107;53.356;-1.524;2023-02-22T00:38:01;98307.61;;;6.34;78.58
60246;BME280;46107;53.356;-1.524;2023-02-22T00:40:33;98308.40;;;5.73;82.32
60246;BME280;46107;53.356;-1.524;2023-02-22T00:43:02;98308.50;;;6.30;79.01
60246;BME280;46107;53.356;-1.524;2023-02-22T00:45:32;98305.95;;;6.18;78.86
60246;BME280;46107;53.356;-1.524;2023-02-22T00:48:01;98304.81;;;6.47;77.58
60246;BME280;46107;53.356;-1.524;2023-02-22T00:50:31;98302.53;;;6.41;78.31
60246;BME280;46107;53.356;-1.524;2023-02-22T00:53:00;98300.51;;;6.00;77.65
60246;BME280;46107;53.356;-1.524;2023-02-22T00:55:30;98295.20;;;7.05;75.82
60246;BME280;46107;53.356;-1.524;2023-02-22T00:57:59;98298.77;;;6.95;73.78
60246;BME280;46107;53.356;-1.524;2023-02-22T01:00:29;98298.32;;;6.75;76.42
60246;BME280;46107;53.356;-1.524;2023-02-22T01:02:56;98300.16;;;6.93;74.64
60246;BME280;46107;53.356;-1.524;2023-02-22T01:05:26;98297.47;;;6.45;76.13
60246;BME280;46107;53.356;-1.524;2023-02-22T01:07:56;98302.69;;;5.98;79.52
60246;BME280;46107;53.356;-1.524;2023-02-22T01:10:26;98301.76;;;6.65;75.37
60246;BME280;46107;53.356;-1.524;2023-02-22T01:12:55;98296.71;;;6.88;74.99
60246;BME280;46107;53.356;-1.524;2023-02-22T01:15:25;98287.98;;;7.16;72.57
60246;BME280;46107;53.356;-1.524;2023-02-22T01:17:54;98288.20;;;6.18;75.79
60246;BME280;46107;53.356;-1.524;2023-02-22T01:20:22;98272.44;;;7.84;69.55
60246;BME280;46107;53.356;-1.524;2023-02-22T01:22:52;98261.37;;;6.40;71.57
60246;BME280;46107;53.356;-1.524;2023-02-22T01:25:21;98278.61;;;7.06;72.90
60246;BME280;46107;53.356;-1.524;2023-02-22T01:27:51;98273.09;;;6.44;71.27
60246;BME280;46107;53.356;-1.524;2023-02-22T01:30:21;98284.54;;;7.60;68.44
60246;BME280;46107;53.356;-1.524;2023-02-22T01:32:49;98272.03;;;6.76;72.02
60246;BME280;46107;53.356;-1.524;2023-02-22T01:35:20;98278.33;;;5.48;77.40
60246;BME280;46107;53.356;-1.524;2023-02-22T01:37:48;98283.22;;;5.03;79.41
60246;BME280;46107;53.356;-1.524;2023-02-22T01:40:19;98281.87;;;5.09;79.47
60246;BME280;46107;53.356;-1.524;2023-02-22T01:42:51;98271.59;;;7.33;70.84
60246;BME280;46107;53.356;-1.524;2023-02-22T01:46:25;98264.60;;;7.49;69.51
60246;BME280;46107;53.356;-1.524;2023-02-22T01:48:57;98253.66;;;7.17;69.61
60246;BME280;46107;53.356;-1.524;2023-02-22T01:51:28;98242.14;;;8.11;66.66
60246;BME280;46107;53.356;-1.524;2023-02-22T01:54:02;98242.52;;;8.42;66.20
60246;BME280;46107;53.356;-1.524;2023-02-22T01:56:33;98237.97;;;8.37;64.64
60246;BME280;46107;53.356;-1.524;2023-02-22T01:59:04;98235.40;;;7.12;68.34
60246;BME280;46107;53.356;-1.524;2023-02-22T02:01:34;98232.22;;;8.36;65.52
60246;BME280;46107;53.356;-1.524;2023-02-22T02:04:06;98232.38;;;8.40;65.57
60246;BME280;46107;53.356;-1.524;2023-02-22T02:06:36;98228.00;;;7.24;67.24
60246;BME280;46107;53.356;-1.524;2023-02-22T02:09:10;98223.01;;;7.05;68.89
60246;BME280;46107;53.356;-1.524;2023-02-22T02:11:41;98216.09;;;6.57;71.08
60246;BME280;46107;53.356;-1.524;2023-02-22T02:14:10;98214.64;;;6.94;70.12
60246;BME280;46107;53.356;-1.524;2023-02-22T02:16:41;98210.43;;;6.45;69.62
60246;BME280;46107;53.356;-1.524;2023-02-22T02:19:18;98215.26;;;7.80;68.00
60246;BME280;46107;53.356;-1.524;2023-02-22T02:22:13;98213.72;;;6.57;72.78
60246;BME280;46107;53.356;-1.524;2023-02-22T02:25:05;98217.31;;;6.55;74.87
60246;BME280;46107;53.356;-1.524;2023-02-22T02:27:54;98212.92;;;5.70;75.55
60246;BME280;46107;53.356;-1.524;2023-02-22T02:30:42;98208.52;;;5.84;77.30
60246;BME280;46107;53.356;-1.524;2023-02-22T02:33:15;98198.26;;;5.81;74.46
60246;BME280;46107;53.356;-1.524;2023-02-22T02:35:50;98198.34;;;6.42;72.24
60246;BME280;46107;53.356;-1.524;2023-02-22T02:38:29;98194.66;;;7.22;67.98
60246;BME280;46107;53.356;-1.524;2023-02-22T02:41:05;98179.76;;;6.42;68.44
60246;BME280;46107;53.356;-1.524;2023-02-22T02:43:38;98178.12;;;5.33;72.39
60246;BME280;46107;53.356;-1.524;2023-02-22T02:46:13;98168.82;;;7.15;67.37
60246;BME280;46107;53.356;-1.524;2023-02-22T02:48:48;98164.74;;;7.24;65.62
60246;BME280;46107;53.356;-1.524;2023-02-22T02:51:19;98168.07;;;7.25;64.23
60246;BME280;46107;53.356;-1.524;2023-02-22T02:53:49;98166.91;;;6.37;66.44
60246;BME280;46107;53.356;-1.524;2023-02-22T02:56:18;98164.94;;;6.03;66.92
60246;BME280;46107;53.356;-1.524;2023-02-22T02:58:47;98160.45;;;6.06;68.48
60246;BME280;46107;53.356;-1.524;2023-02-22T03:01:24;98165.04;;;6.03;66.08
60246;BME280;46107;53.356;-1.524;2023-02-22T03:04:11;98173.09;;;7.28;63.64
60246;BME280;46107;53.356;-1.524;2023-02-22T03:07:00;98182.32;;;5.55;68.26
60246;BME280;46107;53.356;-1.524;2023-02-22T03:09:38;98187.47;;;5.63;69.60
60246;BME280;46107;53.356;-1.524;2023-02-22T03:12:16;98182.60;;;5.57;70.80
60246;BME280;46107;53.356;-1.524;2023-02-22T03:14:54;98182.80;;;4.81;72.87
60246;BME280;46107;53.356;-1.524;2023-02-22T03:17:35;98178.32;;;5.40;71.51
60246;BME280;46107;53.356;-1.524;2023-02-22T03:20:09;98169.84;;;4.79;74.23
60246;BME280;46107;53.356;-1.524;2023-02-22T03:22:43;98175.57;;;5.59;71.65
60246;BME280;46107;53.356;-1.524;2023-02-22T03:25:18;98177.60;;;5.56;71.43
60246;BME280;46107;53.356;-1.524;2023-02-22T03:27:51;98175.85;;;4.68;75.33
60246;BME280;46107;53.356;-1.524;2023-02-22T03:30:24;98172.63;;;5.11;72.78
60246;BME280;46107;53.356;-1.524;2023-02-22T03:32:59;98166.41;;;5.03;72.09
60246;BME280;46107;53.356;-1.524;2023-02-22T03:35:32;98164.43;;;5.11;73.44
60246;BME280;46107;53.356;-1.524;2023-02-22T03:38:03;98166.07;;;4.68;74.59
60246;BME280;46107;53.356;-1.524;2023-02-22T03:40:35;98166.53;;;6.09;70.99
60246;BME280;46107;53.356;-1.524;2023-02-22T03:43:06;98162.14;;;6.09;70.04
60246;BME280;46107;53.356;-1.524;2023-02-22T03:45:35;98155.62;;;5.81;69.74
60246;BME280;46107;53.356;-1.524;2023-02-22T03:48:07;98160.92;;;5.69;69.63
60246;BME280;46107;53.356;-1.524;2023-02-22T03:50:41;98157.65;;;5.48;69.93
60246;BME280;46107;53.356;-1.524;2023-02-22T03:53:08;98156.49;;;5.94;68.65
60246;BME280;46107;53.356;-1.524;2023-02-22T03:55:37;98151.06;;;5.78;68.84
60246;BME280;46107;53.356;-1.524;2023-02-22T03:58:07;98159.01;;;6.19;67.71
60246;BME280;46107;53.356;-1.524;2023-02-22T04:00:37;98150.52;;;5.89;70.36
60246;BME280;46107;53.356;-1.524;2023-02-22T04:03:04;98144.59;;;6.19;66.70
60246;BME280;46107;53.356;-1.524;2023-02-22T04:05:32;98139.96;;;6.27;67.12
60246;BME280;46107;53.356;-1.524;2023-02-22T04:07:59;98147.34;;;6.53;66.93
60246;BME280;46107;53.356;-1.524;2023-02-22T04:10:28;98149.55;;;6.70;66.51
60246;BME280;46107;53.356;-1.524;2023-02-22T04:12:55;98150.04;;;7.19;63.68
60246;BME280;46107;53.356;-1.524;2023-02-22T04:15:23;98144.54;;;6.32;65.42
60246;BME280;46107;53.356;-1.524;2023-02-22T04:17:57;98143.14;;;6.82;65.15
60246;BME280;46107;53.356;-1.524;2023-02-22T04:20:24;98139.10;;;7.12;64.58
60246;BME280;46107;53.356;-1.524;2023-02-22T04:22:53;98140.27;;;6.91;63.49
60246;BME280;46107;53.356;-1.524;2023-02-22T04:25:22;98137.71;;;6.45;65.11
60246;BME280;46107;53.356;-1.524;2023-02-22T04:27:49;98139.28;;;6.52;65.06
60246;BME280;46107;53.356;-1.524;2023-02-22T04:30:18;98140.39;;;6.51;65.36
60246;BME280;46107;53.356;-1.524;2023-02-22T04:32:46;98142.11;;;7.46;62.95
60246;BME280;46107;53.356;-1.524;2023-02-22T04:35:14;98148.91;;;7.23;62.08
60246;BME280;46107;53.356;-1.524;2023-02-22T04:37:42;98148.06;;;7.54;63.85
60246;BME280;46107;53.356;-1.524;2023-02-22T04:40:10;98139.62;;;6.48;66.23
60246;BME280;46107;53.356;-1.524;2023-02-22T04:42:38;98135.97;;;5.99;68.29
60246;BME280;46107;53.356;-1.524;2023-02-22T04:45:09;98140.16;;;7.81;62.26
60246;BME280;46107;53.356;-1.524;2023-02-22T04:47:37;98132.80;;;7.85;60.15
60246;BME280;46107;53.356;-1.524;2023-02-22T04:50:07;98134.64;;;7.90;60.94
60246;BME280;46107;53.356;-1.524;2023-02-22T04:52:35;98138.06;;;7.32;60.90
60246;BME280;46107;53.356;-1.524;2023-02-22T04:55:03;98132.14;;;7.94;59.65
60246;BME280;46107;53.356;-1.524;2023-02-22T04:57:30;98137.57;;;7.97;60.77
60246;BME280;46107;53.356;-1.524;2023-02-22T04:59:59;98138.99;;;7.08;62.70
60246;BME280;46107;53.356;-1.524;2023-02-22T05:02:26;98139.78;;;7.48;62.26
60246;BME280;46107;53.356;-1.524;2023-02-22T05:04:54;98140.33;;;6.82;62.79
60246;BME280;46107;53.356;-1.524;2023-02-22T05:07:22;98136.04;;;6.77;63.36
60246;BME280;46107;53.356;-1.524;2023-02-22T05:09:49;98135.98;;;6.88;61.97
60246;BME280;46107;53.356;-1.524;2023-02-22T05:12:17;98135.87;;;6.84;62.68
60246;BME280;46107;53.356;-1.524;2023-02-22T05:14:44;98135.08;;;6.82;63.71
60246;BME280;46107;53.356;-1.524;2023-02-22T05:17:13;98133.27;;;4.96;70.24
60246;BME280;46107;53.356;-1.524;2023-02-22T05:19:40;98137.32;;;5.96;66.06
60246;BME280;46107;53.356;-1.524;2023-02-22T05:22:08;98138.29;;;6.12;66.91
60246;BME280;46107;53.356;-1.524;2023-02-22T05:24:36;98136.56;;;6.66;64.51
60246;BME280;46107;53.356;-1.524;2023-02-22T05:27:04;98132.99;;;5.27;67.39
60246;BME280;46107;53.356;-1.524;2023-02-22T05:29:32;98134.05;;;6.86;64.76
60246;BME280;46107;53.356;-1.524;2023-02-22T05:32:00;98119.74;;;6.09;66.05
60246;BME280;46107;53.356;-1.524;2023-02-22T05:34:27;98112.10;;;6.43;66.19
60246;BME280;46107;53.356;-1.524;2023-02-22T05:36:55;98120.23;;;6.46;64.15
60246;BME280;46107;53.356;-1.524;2023-02-22T05:39:23;98122.58;;;6.84;64.44
60246;BME280;46107;53.356;-1.524;2023-02-22T05:41:51;98128.87;;;6.76;63.25
60246;BME280;46107;53.356;-1.524;2023-02-22T05:44:19;98133.59;;;7.25;63.29
60246;BME280;46107;53.356;-1.524;2023-02-22T05:46:47;98129.52;;;6.34;64.56
60246;BME280;46107;53.356;-1.524;2023-02-22T05:49:15;98122.22;;;6.87;62.22
60246;BME280;46107;53.356;-1.524;2023-02-22T05:51:42;98111.86;;;5.88;65.84
60246;BME280;46107;53.356;-1.524;2023-02-22T05:54:09;98110.87;;;7.66;61.16
60246;BME280;46107;53.356;-1.524;2023-02-22T05:56:37;98118.10;;;6.74;63.07
60246;BME280;46107;53.356;-1.524;2023-02-22T05:59:05;98117.71;;;6.82;61.97
60246;BME280;46107;53.356;-1.524;2023-02-22T06:01:32;98120.96;;;6.56;64.00
60246;BME280;46107;53.356;-1.524;2023-02-22T06:04:00;98114.42;;;5.91;65.18
60246;BME280;46107;53.356;-1.524;2023-02-22T06:06:27;98120.39;;;5.64;66.89
60246;BME280;46107;53.356;-1.524;2023-02-22T06:08:55;98119.00;;;7.26;62.88
60246;BME280;46107;53.356;-1.524;2023-02-22T06:11:23;98122.46;;;7.23;63.21
60246;BME280;46107;53.356;-1.524;2023-02-22T06:13:51;98116.33;;;6.76;63.33
60246;BME280;46107;53.356;-1.524;2023-02-22T06:16:20;98116.73;;;7.06;62.49
60246;BME280;46107;53.356;-1.524;2023-02-22T06:18:47;98116.54;;;6.96;65.22
60246;BME280;46107;53.356;-1.524;2023-02-22T06:21:15;98111.83;;;6.99;63.02
60246;BME280;46107;53.356;-1.524;2023-02-22T06:23:43;98109.58;;;7.70;61.45
60246;BME280;46107;53.356;-1.524;2023-02-22T06:26:11;98117.96;;;7.63;61.45
60246;BME280;46107;53.356;-1.524;2023-02-22T06:28:38;98114.92;;;6.29;64.25
60246;BME280;46107;53.356;-1.524;2023-02-22T06:31:05;98114.76;;;7.00;63.03
60246;BME280;46107;53.356;-1.524;2023-02-22T06:33:33;98111.96;;;6.52;64.31
60246;BME280;46107;53.356;-1.524;2023-02-22T06:36:00;98108.43;;;7.35;62.40
60246;BME280;46107;53.356;-1.524;2023-02-22T06:38:28;98107.37;;;7.74;61.91
60246;BME280;46107;53.356;-1.524;2023-02-22T06:40:55;98105.86;;;7.73;61.59
60246;BME280;46107;53.356;-1.524;2023-02-22T06:43:23;98113.68;;;6.79;63.79
60246;BME280;46107;53.356;-1.524;2023-02-22T06:45:56;98113.84;;;7.49;61.32
60246;BME280;46107;53.356;-1.524;2023-02-22T06:48:24;98113.77;;;8.00;59.69
60246;BME280;46107;53.356;-1.524;2023-02-22T06:50:57;98113.61;;;7.37;61.45
60246;BME280;46107;53.356;-1.524;2023-02-22T06:53:25;98114.32;;;6.60;63.61
60246;BME280;46107;53.356;-1.524;2023-02-22T06:55:53;98112.83;;;6.10;65.04
60246;BME280;46107;53.356;-1.524;2023-02-22T06:58:20;98114.83;;;7.03;63.90
60246;BME280;46107;53.356;-1.524;2023-02-22T07:00:48;98114.78;;;7.49;62.81
60246;BME280;46107;53.356;-1.524;2023-02-22T07:03:15;98115.41;;;7.22;63.39
60246;BME280;46107;53.356;-1.524;2023-02-22T07:05:43;98113.54;;;6.85;64.79
60246;BME280;46107;53.356;-1.524;2023-02-22T07:08:11;98112.62;;;7.34;63.04
60246;BME280;46107;53.356;-1.524;2023-02-22T07:10:39;98099.83;;;7.86;61.49
60246;BME280;46107;53.356;-1.524;2023-02-22T07:13:07;98104.40;;;7.86;61.58
60246;BME280;46107;53.356;-1.524;2023-02-22T07:15:35;98110.32;;;6.58;64.71
60246;BME280;46107;53.356;-1.524;2023-02-22T07:18:03;98112.25;;;7.37;63.10
60246;BME280;46107;53.356;-1.524;2023-02-22T07:20:31;98117.44;;;6.68;65.63
60246;BME280;46107;53.356;-1.524;2023-02-22T07:23:00;98116.84;;;5.82;67.46
60246;BME280;46107;53.356;-1.524;2023-02-22T07:25:27;98120.43;;;7.17;63.00
60246;BME280;46107;53.356;-1.524;2023-02-22T07:27:54;98125.51;;;7.29;64.31
60246;BME280;46107;53.356;-1.524;2023-02-22T07:30:23;98123.51;;;6.23;69.05
60246;BME280;46107;53.356;-1.524;2023-02-22T07:32:57;98124.44;;;6.83;66.40
60246;BME280;46107;53.356;-1.524;2023-02-22T07:35:27;98128.21;;;7.00;67.37
60246;BME280;46107;53.356;-1.524;2023-02-22T07:37:55;98131.04;;;5.85;69.44
60246;BME280;46107;53.356;-1.524;2023-02-22T07:40:24;98131.42;;;5.79;70.50
60246;BME280;46107;53.356;-1.524;2023-02-22T07:42:58;98134.43;;;6.87;66.99
60246;BME280;46107;53.356;-1.524;2023-02-22T07:45:27;98136.50;;;6.54;68.72
60246;BME280;46107;53.356;-1.524;2023-02-22T07:47:56;98135.45;;;7.28;66.70
60246;BME280;46107;53.356;-1.524;2023-02-22T07:50:25;98133.81;;;7.49;66.09
60246;BME280;46107;53.356;-1.524;2023-02-22T07:52:54;98136.45;;;6.30;67.83
60246;BME280;46107;53.356;-1.524;2023-02-22T07:55:24;98134.11;;;7.50;66.12
60246;BME280;46107;53.356;-1.524;2023-02-22T07:57:58;98139.92;;;6.15;69.23
60246;BME280;46107;53.356;-1.524;2023-02-22T08:00:29;98145.47;;;6.82;68.29
60246;BME280;46107;53.356;-1.524;2023-02-22T08:02:58;98145.04;;;7.23;67.06
60246;BME280;46107;53.356;-1.524;2023-02-22T08:05:27;98145.78;;;6.55;68.93
60246;BME280;46107;53.356;-1.524;2023-02-22T08:07:55;98149.48;;;6.43;70.34
60246;BME280;46107;53.356;-1.524;2023-02-22T08:10:24;98149.61;;;6.16;71.08
60246;BME280;46107;53.356;-1.524;2023-02-22T08:12:53;98153.06;;;6.95;69.27
60246;BME280;46107;53.356;-1.524;2023-02-22T08:15:24;98148.26;;;6.34;70.53
60246;BME280;46107;53.356;-1.524;2023-02-22T08:17:58;98153.31;;;6.55;69.44
60246;BME280;46107;53.356;-1.524;2023-02-22T08:20:27;98157.38;;;7.50;67.00
60246;BME280;46107;53.356;-1.524;2023-02-22T08:22:56;98160.69;;;7.82;66.67
60246;BME280;46107;53.356;-1.524;2023-02-22T08:25:25;98159.37;;;7.02;66.69
60246;BME280;46107;53.356;-1.524;2023-02-22T08:27:56;98158.76;;;5.92;71.01
60246;BME280;46107;53.356;-1.524;2023-02-22T08:30:24;98155.48;;;6.27;70.62
60246;BME280;46107;53.356;-1.524;2023-02-22T08:32:52;98154.43;;;6.36;71.71
60246;BME280;46107;53.356;-1.524;2023-02-22T08:35:21;98154.88;;;6.95;70.40
60246;BME280;46107;53.356;-1.524;2023-02-22T08:37:49;98151.11;;;6.25;71.10
60246;BME280;46107;53.356;-1.524;2023-02-22T08:40:20;98148.94;;;6.60;69.50
60246;BME280;46107;53.356;-1.524;2023-02-22T08:42:48;98155.59;;;7.22;69.18
60246;BME280;46107;53.356;-1.524;2023-02-22T08:45:16;98154.78;;;7.31;67.18
60246;BME280;46107;53.356;-1.524;2023-02-22T08:47:44;98157.79;;;7.24;68.48
60246;BME280;46107;53.356;-1.524;2023-02-22T08:50:17;98158.51;;;6.90;68.86
60246;BME280;46107;53.356;-1.524;2023-02-22T08:52:44;98158.99;;;6.10;71.47
60246;BME280;46107;53.356;-1.524;2023-02-22T08:55:12;98160.29;;;7.61;67.35
60246;BME280;46107;53.356;-1.524;2023-02-22T08:57:40;98158.24;;;7.81;67.52
60246;BME280;46107;53.356;-1.524;2023-02-22T09:00:08;98159.53;;;7.20;68.44
60246;BME280;46107;53.356;-1.524;2023-02-22T09:02:36;98158.01;;;7.70;68.32
60246;BME280;46107;53.356;-1.524;2023-02-22T09:05:04;98156.01;;;7.51;68.96
60246;BME280;46107;53.356;-1.524;2023-02-22T09:07:32;98150.02;;;7.23;69.86
60246;BME280;46107;53.356;-1.524;2023-02-22T09:10:00;98159.90;;;5.70;75.45
60246;BME280;46107;53.356;-1.524;2023-02-22T09:12:27;98153.99;;;6.19;73.74
60246;BME280;46107;53.356;-1.524;2023-02-22T09:14:55;98159.66;;;6.42;74.39
60246;BME280;46107;53.356;-1.524;2023-02-22T09:17:23;98158.66;;;6.09;74.90
60246;BME280;46107;53.356;-1.524;2023-02-22T09:19:52;98163.92;;;5.67;76.24
60246;BME280;46107;53.356;-1.524;2023-02-22T09:22:19;98165.13;;;5.51;77.63
60246;BME280;46107;53.356;-1.524;2023-02-22T09:24:46;98166.79;;;6.49;73.78
60246;BME280;46107;53.356;-1.524;2023-02-22T09:27:16;98169.25;;;6.64;72.39
60246;BME280;46107;53.356;-1.524;2023-02-22T09:29:43;98171.53;;;5.73;74.89
60246;BME280;46107;53.356;-1.524;2023-02-22T09:32:14;98172.30;;;5.91;75.61
60246;BME280;46107;53.356;-1.524;2023-02-22T09:34:42;98172.04;;;6.42;71.68
60246;BME280;46107;53.356;-1.524;2023-02-22T09:37:10;98171.35;;;6.06;71.89
60246;BME280;46107;53.356;-1.524;2023-02-22T09:39:37;98173.98;;;6.06;74.17
60246;BME280;46107;53.356;-1.524;2023-02-22T09:42:10;98181.15;;;4.79;77.74
60246;BME280;46107;53.356;-1.524;2023-02-22T09:44:43;98183.03;;;4.39;81.07
60246;BME280;46107;53.356;-1.524;2023-02-22T09:47:16;98192.35;;;4.36;81.02
60246;BME280;46107;53.356;-1.524;2023-02-22T09:49:53;98197.42;;;4.98;77.75
60246;BME280;46107;53.356;-1.524;2023-02-22T09:52:26;98201.68;;;4.91;76.77
60246;BME280;46107;53.356;-1.524;2023-02-22T09:55:06;98201.12;;;4.60;79.23
60246;BME280;46107;53.356;-1.524;2023-02-22T09:57:39;98206.50;;;5.55;77.66
60246;BME280;46107;53.356;-1.524;2023-02-22T10:00:16;98202.95;;;4.77;77.44
60246;BME280;46107;53.356;-1.524;2023-02-22T10:02:50;98212.99;;;3.32;80.68
60246;BME280;46107;53.356;-1.524;2023-02-22T10:05:23;98210.70;;;4.03;79.89
60246;BME280;46107;53.356;-1.524;2023-02-22T10:08:00;98212.46;;;4.30;78.98
60246;BME280;46107;53.356;-1.524;2023-02-22T10:10:32;98208.32;;;4.75;76.54
60246;BME280;46107;53.356;-1.524;2023-02-22T10:13:08;98215.63;;;4.79;76.19
60246;BME280;46107;53.356;-1.524;2023-02-22T10:15:46;98222.38;;;3.94;79.24
60246;BME280;46107;53.356;-1.524;2023-02-22T10:19:39;98224.62;;;3.91;79.37
60246;BME280;46107;53.356;-1.524;2023-02-22T10:22:24;98227.17;;;4.28;82.03
60246;BME280;46107;53.356;-1.524;2023-02-22T10:25:00;98221.27;;;4.18;79.99
60246;BME280;46107;53.356;-1.524;2023-02-22T10:27:32;98223.08;;;4.04;78.88
60246;BME280;46107;53.356;-1.524;2023-02-22T10:30:05;98212.34;;;4.66;77.53
60246;BME280;46107;53.356;-1.524;2023-02-22T10:32:41;98207.60;;;4.45;75.61
60246;BME280;46107;53.356;-1.524;2023-02-22T10:35:17;98209.45;;;4.45;76.11
60246;BME280;46107;53.356;-1.524;2023-02-22T10:37:49;98211.68;;;4.84;75.13
60246;BME280;46107;53.356;-1.524;2023-02-22T10:40:21;98216.01;;;4.73;76.37
60246;BME280;46107;53.356;-1.524;2023-02-22T10:42:50;98217.24;;;4.01;77.91
60246;BME280;46107;53.356;-1.524;2023-02-22T10:45:20;98215.00;;;4.71;74.86
60246;BME280;46107;53.356;-1.524;2023-02-22T10:47:50;98214.87;;;4.48;76.25
60246;BME280;46107;53.356;-1.524;2023-02-22T10:50:21;98216.67;;;4.63;76.59
60246;BME280;46107;53.356;-1.524;2023-02-22T10:52:49;98216.18;;;5.05;74.85
60246;BME280;46107;53.356;-1.524;2023-02-22T10:55:17;98210.32;;;4.50;74.24
60246;BME280;46107;53.356;-1.524;2023-02-22T10:57:46;98214.11;;;5.01;73.61
60246;BME280;46107;53.356;-1.524;2023-02-22T11:00:19;98218.49;;;5.24;71.53
60246;BME280;46107;53.356;-1.524;2023-02-22T11:02:52;98224.70;;;3.63;77.87
60246;BME280;46107;53.356;-1.524;2023-02-22T11:05:31;98229.71;;;4.22;79.33
60246;BME280;46107;53.356;-1.524;2023-02-22T11:08:17;98226.03;;;3.85;80.55
60246;BME280;46107;53.356;-1.524;2023-02-22T11:10:50;98227.63;;;3.84;79.32
60246;BME280;46107;53.356;-1.524;2023-02-22T11:13:23;98220.12;;;4.89;77.18
60246;BME280;46107;53.356;-1.524;2023-02-22T11:16:00;98221.57;;;4.59;76.73
60246;BME280;46107;53.356;-1.524;2023-02-22T11:18:30;98211.09;;;4.76;73.77
60246;BME280;46107;53.356;-1.524;2023-02-22T11:21:01;98222.08;;;5.17;71.42
60246;BME280;46107;53.356;-1.524;2023-02-22T11:23:31;98221.01;;;5.29;71.07
60246;BME280;46107;53.356;-1.524;2023-02-22T11:26:05;98224.31;;;5.39;67.18
60246;BME280;46107;53.356;-1.524;2023-02-22T11:28:33;98229.96;;;6.04;68.40
60246;BME280;46107;53.356;-1.524;2023-02-22T11:31:13;98233.76;;;5.88;68.79
60246;BME280;46107;53.356;-1.524;2023-02-22T11:33:49;98237.56;;;5.74;65.93
60246;BME280;46107;53.356;-1.524;2023-02-22T11:36:36;98243.87;;;5.64;67.44
60246;BME280;46107;53.356;-1.524;2023-02-22T11:39:05;98246.65;;;4.91;69.52
60246;BME280;46107;53.356;-1.524;2023-02-22T11:41:46;98254.08;;;4.83;74.01
60246;BME280;46107;53.356;-1.524;2023-02-22T11:44:22;98253.85;;;4.42;72.21
60246;BME280;46107;53.356;-1.524;2023-02-22T11:46:57;98260.72;;;5.35;69.33
60246;BME280;46107;53.356;-1.524;2023-02-22T11:49:31;98263.57;;;4.83;71.57
60246;BME280;46107;53.356;-1.524;2023-02-22T11:52:16;98258.77;;;4.68;71.79
60246;BME280;46107;53.356;-1.524;2023-02-22T11:54:57;98253.83;;;4.76;70.13
60246;BME280;46107;53.356;-1.524;2023-02-22T11:57:40;98253.81;;;4.66;72.31
60246;BME280;46107;53.356;-1.524;2023-02-22T12:00:17;98255.48;;;4.93;70.86
60246;BME280;46107;53.356;-1.524;2023-02-22T12:03:02;98251.79;;;5.25;69.03
60246;BME280;46107;53.356;-1.524;2023-02-22T12:05:43;98258.91;;;4.83;69.71
60246;BME280;46107;53.356;-1.524;2023-02-22T12:08:21;98269.86;;;4.49;72.64
60246;BME280;46107;53.356;-1.524;2023-02-22T12:10:59;98259.83;;;5.23;69.07
60246;BME280;46107;53.356;-1.524;2023-02-22T12:13:42;98253.48;;;5.34;68.01
60246;BME280;46107;53.356;-1.524;2023-02-22T12:16:20;98260.90;;;5.48;70.15
60246;BME280;46107;53.356;-1.524;2023-02-22T12:19:01;98267.83;;;4.62;67.96
60246;BME280;46107;53.356;-1.524;2023-02-22T12:21:36;98279.97;;;4.51;69.45
60246;BME280;46107;53.356;-1.524;2023-02-22T12:24:09;98269.99;;;4.74;67.13
60246;BME280;46107;53.356;-1.524;2023-02-22T12:26:40;98270.80;;;5.25;66.98
60246;BME280;46107;53.356;-1.524;2023-02-22T12:29:13;98269.19;;;5.91;67.06
60246;BME280;46107;53.356;-1.524;2023-02-22T12:31:47;98269.24;;;5.03;69.67
60246;BME280;46107;53.356;-1.524;2023-02-22T12:34:25;98266.75;;;5.30;69.90
60246;BME280;46107;53.356;-1.524;2023-02-22T12:36:59;98279.13;;;6.04;68.03
60246;BME280;46107;53.356;-1.524;2023-02-22T12:39:39;98279.74;;;5.60;66.36
60246;BME280;46107;53.356;-1.524;2023-02-22T12:42:14;98282.72;;;6.61;65.05
60246;BME280;46107;53.356;-1.524;2023-02-22T12:44:46;98284.29;;;5.81;65.47
60246;BME280;46107;53.356;-1.524;2023-02-22T12:47:21;98292.42;;;6.38;61.34
60246;BME280;46107;53.356;-1.524;2023-02-22T12:49:56;98294.05;;;6.63;61.43
60246;BME280;46107;53.356;-1.524;2023-02-22T12:52:36;98294.95;;;5.87;62.52
60246;BME280;46107;53.356;-1.524;2023-02-22T12:55:10;98295.39;;;4.68;65.79
60246;BME280;46107;53.356;-1.524;2023-02-22T12:57:46;98296.98;;;5.51;65.81
60246;BME280;46107;53.356;-1.524;2023-02-22T13:00:19;98300.29;;;5.14;64.14
60246;BME280;46107;53.356;-1.524;2023-02-22T13:02:55;98304.30;;;5.45;63.74
60246;BME280;46107;53.356;-1.524;2023-02-22T13:05:23;98305.25;;;4.55;66.34
60246;BME280;46107;53.356;-1.524;2023-02-22T13:08:02;98291.88;;;5.30;63.41
60246;BME280;46107;53.356;-1.524;2023-02-22T13:10:52;98301.11;;;5.26;67.02
60246;BME280;46107;53.356;-1.524;2023-02-22T13:13:30;98309.58;;;5.33;66.13
60246;BME280;46107;53.356;-1.524;2023-02-22T13:16:05;98305.68;;;5.54;66.85
60246;BME280;46107;53.356;-1.524;2023-02-22T13:18:46;98301.24;;;6.78;62.88
60246;BME280;46107;53.356;-1.524;2023-02-22T13:21:21;98305.10;;;7.36;61.93
60246;BME280;46107;53.356;-1.524;2023-02-22T13:23:55;98308.66;;;7.97;57.58